ADDS METAR Data INFO
IDs: Format: Raw Decoded Include TAF

Data at: 2309 UTC 16 Jan 2018

KSTC 162253Z 27004KT 10SM CLR M16/M20 A3059 RMK AO2 SLP397 T11611200
KSTC 162153Z 26004KT 10SM CLR M15/M19 A3059 RMK AO2 SLP398 T11501194
KSTC 162053Z 30006KT 10SM CLR M14/M19 A3061 RMK AO2 SLP403 T11441194 58016
KSTC 161953Z 31006KT 10SM CLR M16/M20 A3063 RMK AO2 SLP409 T11561200
KSTC 161853Z 31007KT 10SM CLR M17/M22 A3064 RMK AO2 SLP415 T11721217
KSTC 161753Z 33005KT 10SM FEW011 M18/M22 A3065 RMK AO2 SLP420 T11781217 11178 21228 58008
KSTC 161653Z 32006KT 10SM OVC011 M19/M22 A3068 RMK AO2 SLP431 T11891222
KSTC 161553Z 31007KT 10SM CLR M21/M23 A3068 RMK AO2 SLP432 T12061228
KSTC 161509Z 30006KT 10SM CLR M21/M23 A3068 RMK AO2 T12111233 $
KSTC 161502Z 30005KT 2 1/2SM BR SCT003 M22/M23 A3068 RMK AO2 T12171233 $
KSTC 161453Z 30005KT 10SM CLR M22/M23 A3068 RMK AO2 SLP431 T12171233 51004 $
KSTC 161353Z 32006KT 10SM CLR M22/M23 A3068 RMK AO2 SLP430 T12171233 $
KSTC 161253Z 33007KT 10SM CLR M21/M23 A3067 RMK AO2 SLP429 T12111233 $
KSTC 161153Z AUTO 32008KT 10SM CLR M21/M23 A3067 RMK AO2 SLP427 T12061228 11178 21206 51010 $
KSTC 161053Z AUTO 32008KT 10SM FEW010 M20/M22 A3065 RMK AO2 SLP420 T12001217 $
KSTC 160953Z AUTO 32009KT 10SM SCT010 M20/M22 A3065 RMK AO2 SLP420 T12001217 $
KSTC 160921Z AUTO 33008KT 10SM SCT011 M19/M21 A3064 RMK AO2 T11941211 $
KSTC 160853Z AUTO 34012G17KT 10SM OVC011 M19/M21 A3064 RMK AO2 SLP414 T11891206 53012 $
KSTC 160753Z AUTO 34010KT 10SM OVC010 M18/M21 A3062 RMK AO2 SLP408 T11831206 $
KSTC 160653Z AUTO 34013KT 10SM OVC012 M18/M21 A3061 RMK AO2 SLP405 T11831206 $
KSTC 160608Z AUTO 35010G19KT 10SM BKN012 M18/M21 A3061 RMK AO2 T11831206 $
KSTC 160600Z AUTO 35010KT 10SM SCT012 M18/M21 A3061 RMK AO2 T11831206 $
KSTC 160553Z AUTO 34012KT 10SM BKN012 M18/M21 A3060 RMK AO2 SLP402 60000 T11831211 11178 21194 411441194 51007 $
KSTC 160453Z 34011KT 10SM CLR M19/M22 A3060 RMK AO2 SLP402 T11941222 $
KSTC 160353Z 34011KT 10SM CLR M19/M22 A3060 RMK AO2 SNE08 SLP401 P0000 T11941222 $
KSTC 160253Z 34011KT 7SM -SN SCT031 OVC039 M18/M22 A3058 RMK AO2 SNB45 SLP394 P0000 60000 T11831222 51018 $
KSTC 160153Z 34011KT 10SM OVC044 M18/M22 A3057 RMK AO2 SLP390 T11831222 $
KSTC 160053Z 34010KT 10SM BKN041 M18/M22 A3055 RMK AO2 SLP383 T11831222 $
KSTC 152353Z 34009KT 10SM FEW045 M18/M22 A3052 RMK AO2 SLP376 60000 T11781222 11161 21178 51025 $
KSTC 152253Z 34010G19KT 8SM OVC039 M17/M22 A3050 RMK AO2 SLP366 T11721217 $
KSTC 152153Z 35008KT 10SM FEW044 BKN055 M17/M21 A3048 RMK AO2 UPB04E13 SLP358 P0000 T11671211 $
KSTC 152120Z 33010KT 10SM BKN035 OVC055 M16/M21 A3046 RMK AO2 UPB04E13 P0000 T11611211 $
KSTC 152110Z 34011G21KT 9SM UP OVC027 M17/M21 A3045 RMK AO2 UPB04 P0000 T11671211 $
KSTC 152053Z 32015KT 10SM BKN033 OVC044 M17/M21 A3045 RMK AO2 SNB00E41 SLP348 P0000 60000 T11671211 53010 $
KSTC 151953Z 32013KT 10SM FEW035 BKN043 OVC090 M17/M22 A3043 RMK AO2 SLP343 T11721222 $
KSTC 151853Z 33013G21KT 10SM FEW036 OVC050 M17/M22 A3043 RMK AO2 UPE27 SLP341 P0000 T11721217 $
KSTC 151753Z 34017G23KT 7SM UP FEW023 BKN033 OVC095 M17/M22 A3042 RMK AO2 SLP337 P0000 60000 T11721222 11172 21189 50008 $
KSTC 151653Z 34017G24KT 6SM UP SCT033 OVC090 M18/M22 A3042 RMK AO2 UPB06 SLP338 P0000 T11781222 $
KSTC 151553Z 33014KT 10SM OVC090 M19/M23 A3041 RMK AO2 SNB09E27 SLP334 P0000 T11891228 $
KSTC 151527Z 33014G20KT 4SM HZ SCT044 BKN050 OVC085 M19/M22 A3040 RMK AO2 SNB09E27 P0000 T11891222 $
KSTC 151518Z 33012KT 2 1/2SM -SN BKN047 OVC080 M19/M22 A3040 RMK AO2 SNB09 P0000 T11891222 $
KSTC 151453Z 32012G20KT 6SM HZ OVC080 M19/M22 A3039 RMK AO2 SLP328 T11891222 51023
KSTC 151353Z 33011KT 8SM OVC070 M19/M22 A3037 RMK AO2 SLP319 T11891217
KSTC 151253Z 33012KT 10SM OVC065 M18/M22 A3035 RMK AO2 SLP311 T11831217
KSTC 151153Z AUTO 32013KT 8SM OVC060 M18/M21 A3032 RMK AO2 SLP302 70011 T11831211 11139 21183 53030